Time;durP1;ratioP1;P1;durP2;ratioP2;P2;SDS_P1;SDS_P2;PMS_P1;PMS_P2;Temp;Humidity;BMP_temperature;BMP_pressure;BME280_temperature;BME280_humidity;BME280_pressure;Samples;Min_cycle;Max_cycle;Signal;HPM_P1;HPM_P2
2021/05/25 00:00:23;;;;;;;4.57;0.93;;;8.90;99.90;;;;;;4165334;28;20202;-79
2021/05/25 00:02:24;;;;;;;3.27;0.90;;;8.90;99.90;;;;;;4165163;28;20168;-79
2021/05/25 00:04:25;;;;;;;3.10;0.90;;;8.90;99.90;;;;;;4165565;28;20179;-78
2021/05/25 00:06:26;;;;;;;3.27;0.80;;;9.00;99.90;;;;;;4148930;28;20231;-77
2021/05/25 00:08:26;;;;;;;4.50;0.73;;;9.00;99.90;;;;;;4165131;28;20681;-78
2021/05/25 00:10:29;;;;;;;2.03;0.80;;;9.00;99.90;;;;;;4148884;28;20169;-79
2021/05/25 00:12:30;;;;;;;4.33;0.90;;;9.00;99.90;;;;;;4165079;28;20168;-79
2021/05/25 00:14:30;;;;;;;3.40;1.03;;;9.00;99.90;;;;;;4149065;28;20232;-78
2021/05/25 00:16:31;;;;;;;6.50;0.90;;;9.00;99.90;;;;;;4148542;28;20212;-78
2021/05/25 00:18:32;;;;;;;3.73;0.70;;;9.00;99.90;;;;;;4164782;28;20204;-79
2021/05/25 00:20:33;;;;;;;3.23;0.80;;;9.10;99.90;;;;;;4165207;28;20174;-79
2021/05/25 00:22:34;;;;;;;3.17;0.63;;;9.00;99.90;;;;;;4165305;28;20655;-76
2021/05/25 00:24:35;;;;;;;3.63;0.80;;;8.90;99.90;;;;;;4148527;28;20185;-79
2021/05/25 00:26:36;;;;;;;4.77;0.60;;;8.90;99.90;;;;;;4166306;28;20229;-78
2021/05/25 00:28:37;;;;;;;2.50;0.70;;;8.80;99.90;;;;;;4165059;28;20168;-76
2021/05/25 00:30:38;;;;;;;5.20;0.77;;;8.80;99.90;;;;;;4165040;28;20171;-77
2021/05/25 00:32:38;;;;;;;2.73;0.63;;;8.60;99.90;;;;;;4148567;28;20184;-78
2021/05/25 00:34:39;;;;;;;1.90;0.60;;;8.50;99.90;;;;;;4166007;28;20165;-79
2021/05/25 00:36:39;;;;;;;2.83;0.80;;;8.50;99.90;;;;;;4164752;28;20196;-78
2021/05/25 00:38:40;;;;;;;1.37;0.50;;;8.40;99.90;;;;;;4164895;28;20208;-78
2021/05/25 00:40:41;;;;;;;1.80;0.53;;;8.40;99.90;;;;;;4164706;28;20164;-77
2021/05/25 00:42:43;;;;;;;1.53;0.57;;;8.40;99.90;;;;;;4165997;28;20255;-78
2021/05/25 00:44:44;;;;;;;5.43;0.77;;;8.40;99.90;;;;;;4148104;28;20172;-78
2021/05/25 00:46:44;;;;;;;2.00;0.57;;;8.50;99.90;;;;;;4164520;28;20619;-79
2021/05/25 00:48:45;;;;;;;1.23;0.57;;;8.50;99.90;;;;;;4164516;28;20271;-79
2021/05/25 00:50:47;;;;;;;4.43;0.90;;;8.40;99.90;;;;;;4148386;28;20176;-77
2021/05/25 00:52:57;;;;;;;4.93;0.80;;;8.50;99.90;;;;;;4165876;28;20173;-77
2021/05/25 00:54:58;;;;;;;2.10;0.60;;;8.60;99.90;;;;;;4148085;28;20168;-78
2021/05/25 00:57:02;;;;;;;3.53;0.63;;;8.50;99.90;;;;;;4164433;28;20531;-78
2021/05/25 00:59:03;;;;;;;2.37;0.80;;;8.50;99.90;;;;;;4164605;28;20196;-80
2021/05/25 01:01:04;;;;;;;1.33;0.60;;;8.50;99.90;;;;;;4148196;28;20168;-78
2021/05/25 01:03:06;;;;;;;3.53;0.60;;;8.40;99.90;;;;;;4165521;28;20168;-78
2021/05/25 01:05:10;;;;;;;3.33;0.70;;;8.50;99.90;;;;;;4164341;28;20165;-77
2021/05/25 01:07:12;;;;;;;2.40;0.70;;;8.50;99.90;;;;;;4164134;28;20218;-80
2021/05/25 01:09:16;;;;;;;5.77;0.97;;;8.50;99.90;;;;;;4164122;28;20171;-78
2021/05/25 01:11:18;;;;;;;1.43;0.70;;;8.60;99.90;;;;;;4165872;28;20168;-78
2021/05/25 01:13:24;;;;;;;1.77;0.57;;;8.60;99.90;;;;;;4164084;28;20180;-79
2021/05/25 01:15:26;;;;;;;3.17;0.67;;;8.60;99.90;;;;;;4164205;28;20184;-78
2021/05/25 01:17:27;;;;;;;1.73;0.50;;;8.60;99.90;;;;;;4147939;28;20172;-79
2021/05/25 01:19:27;;;;;;;1.67;0.67;;;8.50;99.90;;;;;;4165191;28;20225;-78
2021/05/25 01:21:28;;;;;;;4.60;1.00;;;8.60;99.90;;;;;;4147760;28;20165;-78
2021/05/25 01:23:30;;;;;;;3.17;0.90;;;8.70;99.90;;;;;;4165321;28;20168;-80
2021/05/25 01:25:31;;;;;;;2.90;0.70;;;8.80;99.90;;;;;;4163979;28;20658;-78
2021/05/25 01:27:32;;;;;;;2.63;0.80;;;8.90;99.90;;;;;;4165246;28;20164;-78
2021/05/25 01:29:34;;;;;;;4.30;0.90;;;9.00;99.90;;;;;;4163814;28;20180;-77
2021/05/25 01:31:35;;;;;;;5.17;0.90;;;8.90;99.90;;;;;;4163973;28;20661;-79
2021/05/25 01:33:37;;;;;;;2.10;0.63;;;8.90;99.90;;;;;;4164127;28;20173;-79
2021/05/25 01:35:38;;;;;;;3.63;0.77;;;8.80;99.90;;;;;;4163671;28;20313;-79
2021/05/25 01:37:39;;;;;;;1.97;0.80;;;8.90;99.90;;;;;;4164582;28;20285;-80
2021/05/25 01:39:39;;;;;;;2.27;0.90;;;8.80;99.90;;;;;;4165128;28;20172;-79
2021/05/25 01:41:41;;;;;;;6.20;0.80;;;8.90;99.90;;;;;;4163777;28;20165;-78
2021/05/25 01:43:41;;;;;;;2.17;0.83;;;9.00;99.90;;;;;;4180360;28;20253;-80
2021/05/25 01:45:42;;;;;;;6.00;1.00;;;9.00;99.90;;;;;;4163967;28;20168;-79
2021/05/25 01:47:43;;;;;;;4.23;0.90;;;9.00;99.90;;;;;;4147617;28;20617;-79
2021/05/25 01:49:43;;;;;;;4.00;0.87;;;9.00;99.90;;;;;;4163938;28;20247;-78
2021/05/25 01:51:46;;;;;;;3.17;0.80;;;9.00;99.90;;;;;;4163631;28;20176;-77
2021/05/25 01:53:47;;;;;;;6.60;0.73;;;9.00;99.90;;;;;;4163779;28;20643;-77
2021/05/25 01:55:52;;;;;;;3.03;0.80;;;9.00;99.90;;;;;;4147339;28;20287;-77
2021/05/25 01:57:57;;;;;;;6.30;0.87;;;8.90;99.90;;;;;;4163488;28;20171;-78
2021/05/25 01:59:58;;;;;;;8.13;1.30;;;9.00;99.90;;;;;;4164912;28;20176;-76
2021/05/25 02:01:59;;;;;;;4.37;1.10;;;9.10;99.90;;;;;;4163680;28;20700;-77
2021/05/25 02:03:59;;;;;;;5.23;0.90;;;9.10;99.90;;;;;;4163810;28;20238;-78
2021/05/25 02:06:00;;;;;;;7.47;1.07;;;9.20;99.90;;;;;;4163852;28;20206;-77
2021/05/25 02:08:02;;;;;;;5.27;1.33;;;9.30;99.90;;;;;;4165108;28;20195;-78
2021/05/25 02:10:03;;;;;;;3.70;0.90;;;9.20;99.90;;;;;;4163577;28;20179;-78
2021/05/25 02:12:04;;;;;;;9.47;1.33;;;9.20;99.90;;;;;;4163707;28;20156;-77
2021/05/25 02:14:05;;;;;;;4.07;1.17;;;9.30;99.90;;;;;;4163840;28;20207;-78
2021/05/25 02:16:11;;;;;;;3.57;1.20;;;9.50;99.90;;;;;;4147291;28;20271;-77
2021/05/25 02:18:21;;;;;;;4.10;1.53;;;9.50;99.90;;;;;;4163514;28;20178;-79
2021/05/25 02:20:22;;;;;;;5.63;1.20;;;9.60;99.90;;;;;;4146966;28;20444;-77
2021/05/25 02:22:23;;;;;;;8.83;1.60;;;9.60;99.90;;;;;;4163643;28;20602;-78
2021/05/25 02:24:23;;;;;;;4.63;1.50;;;9.60;99.90;;;;;;4146918;28;20631;-78
2021/05/25 02:26:24;;;;;;;3.87;1.37;;;9.50;99.90;;;;;;4163402;28;20168;-78
2021/05/25 02:28:25;;;;;;;5.37;1.50;;;9.50;99.90;;;;;;4164609;28;20175;-77
2021/05/25 02:30:28;;;;;;;4.53;1.30;;;9.40;99.90;;;;;;4162975;28;20168;-78
2021/05/25 02:32:28;;;;;;;6.07;1.63;;;9.50;99.90;;;;;;4164436;28;20183;-77
2021/05/25 02:34:29;;;;;;;5.10;1.27;;;9.50;99.90;;;;;;4146990;28;20676;-79
2021/05/25 02:36:30;;;;;;;3.37;1.37;;;9.60;99.90;;;;;;4164361;28;20717;-78
2021/05/25 02:38:31;;;;;;;6.37;1.57;;;9.60;99.90;;;;;;4146952;28;20223;-78
2021/05/25 02:40:32;;;;;;;8.27;1.60;;;9.70;99.90;;;;;;4146883;28;20640;-78
2021/05/25 02:42:33;;;;;;;5.23;1.30;;;9.60;99.90;;;;;;4163261;28;20168;-78
2021/05/25 02:44:33;;;;;;;4.90;1.40;;;9.60;99.90;;;;;;4164597;28;20256;-79
2021/05/25 02:46:34;;;;;;;7.07;1.43;;;9.60;99.90;;;;;;4146905;28;20173;-78
2021/05/25 02:48:35;;;;;;;5.73;1.70;;;9.80;99.90;;;;;;4163208;28;20176;-78
2021/05/25 02:50:36;;;;;;;8.43;1.57;;;9.70;99.90;;;;;;4165203;28;20160;-78
2021/05/25 02:52:45;;;;;;;6.20;1.80;;;9.80;99.90;;;;;;4166275;28;20176;-77
2021/05/25 02:54:46;;;;;;;5.43;1.83;;;9.90;99.90;;;;;;4167951;28;20182;-79
2021/05/25 02:56:47;;;;;;;4.30;1.60;;;9.90;99.90;;;;;;4149868;28;20224;-80
2021/05/25 02:58:48;;;;;;;9.17;1.90;;;9.90;99.90;;;;;;4149806;28;20168;-78
2021/05/25 03:00:48;;;;;;;8.20;2.13;;;10.00;99.90;;;;;;4166361;28;20172;-78
2021/05/25 03:02:49;;;;;;;8.63;2.20;;;10.00;99.90;;;;;;4149925;28;20165;-78
2021/05/25 03:04:50;;;;;;;8.13;2.30;;;10.00;99.90;;;;;;4182908;28;20195;-77
2021/05/25 03:06:51;;;;;;;5.63;2.27;;;10.00;99.90;;;;;;4166129;28;20160;-79
2021/05/25 03:08:51;;;;;;;10.90;2.43;;;10.00;99.90;;;;;;4166548;28;20175;-78
2021/05/25 03:10:52;;;;;;;4.97;2.30;;;10.10;99.90;;;;;;4149796;28;20532;-79
2021/05/25 03:12:53;;;;;;;9.50;2.30;;;10.10;99.90;;;;;;4166134;28;20194;-78
2021/05/25 03:14:54;;;;;;;10.13;2.30;;;10.10;99.90;;;;;;4166065;28;20167;-79
2021/05/25 03:16:55;;;;;;;9.53;2.30;;;10.10;99.90;;;;;;4167241;28;20257;-79
2021/05/25 03:18:55;;;;;;;6.90;2.37;;;9.90;99.90;;;;;;4166196;28;20168;-78
2021/05/25 03:20:56;;;;;;;7.33;2.20;;;9.90;99.90;;;;;;4165996;28;20519;-79
2021/05/25 03:22:57;;;;;;;7.93;2.40;;;9.90;99.90;;;;;;4166310;28;20165;-79
2021/05/25 03:24:58;;;;;;;10.33;2.77;;;9.90;99.90;;;;;;4165696;28;20188;-79
2021/05/25 03:26:59;;;;;;;6.17;2.30;;;10.00;99.90;;;;;;4149872;28;20165;-78
2021/05/25 03:28:59;;;;;;;5.93;2.37;;;10.00;99.90;;;;;;4149384;28;20177;-79
2021/05/25 03:31:00;;;;;;;9.83;3.13;;;10.10;99.90;;;;;;4165700;28;20168;-79
2021/05/25 03:33:01;;;;;;;8.77;2.93;;;10.00;99.90;;;;;;4165667;28;20215;-79
2021/05/25 03:35:05;;;;;;;7.47;2.53;;;10.00;99.90;;;;;;4165561;28;20196;-77
2021/05/25 03:37:06;;;;;;;7.40;2.30;;;9.90;99.90;;;;;;4165565;28;20175;-78
2021/05/25 03:39:07;;;;;;;5.70;2.63;;;9.90;99.90;;;;;;4165772;28;20511;-78
2021/05/25 03:41:08;;;;;;;7.23;3.00;;;10.00;99.90;;;;;;4165570;28;20530;-78
2021/05/25 03:43:08;;;;;;;14.13;3.30;;;10.10;99.90;;;;;;4165580;28;20176;-79
2021/05/25 03:45:09;;;;;;;8.43;2.93;;;10.00;99.90;;;;;;4165685;28;20251;-77
2021/05/25 03:47:10;;;;;;;7.10;2.93;;;9.90;99.90;;;;;;4149250;28;20161;-78
2021/05/25 03:49:10;;;;;;;7.50;3.20;;;9.80;99.90;;;;;;4149217;28;20213;-77
2021/05/25 03:51:11;;;;;;;11.43;3.30;;;9.80;99.90;;;;;;4165504;28;20171;-79
2021/05/25 03:53:12;;;;;;;8.90;3.60;;;9.90;99.90;;;;;;4165195;28;20172;-79
2021/05/25 03:55:24;;;;;;;8.23;3.80;;;9.90;99.90;;;;;;4165356;28;20678;-79
2021/05/25 03:58:48;;;;;;;8.43;4.73;;;10.10;99.90;;;;;;4148955;28;20215;-77
2021/05/25 03:59:45;;;;;;;11.03;3.90;;;10.20;99.90;;;;;;4165257;28;20691;-77
2021/05/25 04:01:46;;;;;;;11.07;3.60;;;10.20;99.90;;;;;;4164676;28;20171;-76
2021/05/25 04:03:49;;;;;;;9.60;4.00;;;10.20;99.90;;;;;;4166445;28;20171;-76
2021/05/25 04:05:50;;;;;;;6.67;2.80;;;10.10;99.90;;;;;;4148959;28;20173;-78
2021/05/25 04:07:51;;;;;;;6.77;2.17;;;10.00;99.90;;;;;;4148984;28;20168;-78
2021/05/25 04:09:52;;;;;;;7.47;2.03;;;10.00;99.90;;;;;;4165171;28;20178;-76
2021/05/25 04:11:52;;;;;;;7.67;2.57;;;9.90;99.90;;;;;;4165266;28;20165;-78
2021/05/25 04:13:53;;;;;;;7.00;3.37;;;9.80;99.90;;;;;;4165399;28;20172;-79
2021/05/25 04:15:55;;;;;;;6.63;3.90;;;9.90;99.90;;;;;;4166236;28;20207;-79
2021/05/25 04:17:55;;;;;;;9.23;4.40;;;10.10;99.90;;;;;;4165014;28;20238;-78
2021/05/25 04:19:56;;;;;;;10.47;5.00;;;9.90;99.90;;;;;;4165156;28;20623;-78
2021/05/25 04:21:57;;;;;;;10.80;5.93;;;9.90;99.90;;;;;;4165019;28;20184;-79
2021/05/25 04:23:58;;;;;;;14.33;5.90;;;9.90;99.90;;;;;;4166243;28;20694;-78
2021/05/25 04:25:59;;;;;;;11.73;5.73;;;10.00;99.90;;;;;;4164728;28;20222;-78
2021/05/25 04:28:00;;;;;;;12.20;5.53;;;10.10;99.90;;;;;;4165217;28;20172;-79
2021/05/25 04:30:01;;;;;;;11.10;5.37;;;10.20;99.90;;;;;;4148598;28;20248;-79
2021/05/25 04:32:02;;;;;;;7.60;5.53;;;10.20;99.90;;;;;;4164894;28;20243;-78
2021/05/25 04:34:03;;;;;;;14.40;6.07;;;10.30;99.90;;;;;;4164928;28;20195;-79
2021/05/25 04:36:04;;;;;;;18.07;12.67;;;10.20;99.90;;;;;;4164930;28;20659;-79
2021/05/25 04:38:05;;;;;;;14.53;7.23;;;10.30;99.90;;;;;;4164879;28;20172;-79
2021/05/25 04:40:06;;;;;;;15.00;6.97;;;10.20;99.90;;;;;;4165015;28;20614;-78
2021/05/25 04:42:07;;;;;;;23.20;18.97;;;10.20;99.90;;;;;;4165006;28;20167;-78
2021/05/25 04:44:08;;;;;;;33.03;25.90;;;10.20;99.90;;;;;;4148478;28;20169;-78
2021/05/25 04:46:09;;;;;;;22.33;13.10;;;10.10;99.90;;;;;;4165854;28;20172;-79
2021/05/25 04:48:10;;;;;;;12.80;7.90;;;10.10;99.90;;;;;;4164639;28;20271;-77
2021/05/25 04:50:12;;;;;;;21.10;8.83;;;10.30;99.90;;;;;;4166065;28;20172;-78
2021/05/25 04:52:13;;;;;;;18.53;8.33;;;10.50;99.90;;;;;;4164627;28;20165;-77
2021/05/25 04:54:13;;;;;;;18.80;9.60;;;10.50;99.90;;;;;;4164478;28;20170;-79
2021/05/25 04:56:14;;;;;;;14.33;10.30;;;10.60;99.90;;;;;;4164317;28;20204;-78
2021/05/25 04:58:15;;;;;;;18.57;11.10;;;10.70;99.90;;;;;;4164348;28;20190;-79
2021/05/25 05:00:18;;;;;;;16.53;8.00;;;10.50;99.90;;;;;;4164287;28;20976;-79
2021/05/25 05:02:19;;;;;;;19.63;12.37;;;10.50;99.90;;;;;;4164603;28;20571;-79
2021/05/25 05:04:20;;;;;;;20.37;8.73;;;10.60;99.90;;;;;;4147960;28;20169;-79
2021/05/25 05:06:21;;;;;;;14.67;10.20;;;10.60;99.90;;;;;;4147930;28;20232;-79
2021/05/25 05:08:22;;;;;;;27.60;18.87;;;10.60;99.90;;;;;;4164221;28;20276;-78
2021/05/25 05:10:23;;;;;;;15.40;10.00;;;10.50;99.90;;;;;;4164056;28;20615;-79
2021/05/25 05:12:25;;;;;;;13.70;9.20;;;10.60;99.90;;;;;;4163611;28;20259;-79
2021/05/25 05:14:26;;;;;;;12.53;8.77;;;10.60;99.90;;;;;;4164619;28;20168;-81
2021/05/25 05:16:27;;;;;;;11.80;7.63;;;10.60;99.90;;;;;;4165490;28;20282;-80
2021/05/25 05:18:27;;;;;;;13.23;8.77;;;10.60;99.90;;;;;;4164004;28;20179;-79
2021/05/25 05:20:28;;;;;;;15.57;8.70;;;10.70;99.90;;;;;;4164069;28;20221;-80
2021/05/25 05:22:29;;;;;;;12.47;8.27;;;10.70;99.90;;;;;;4147655;28;20620;-79
2021/05/25 05:24:30;;;;;;;16.27;8.23;;;10.70;99.90;;;;;;4163955;28;20169;-80
2021/05/25 05:26:30;;;;;;;11.10;8.67;;;10.90;99.90;;;;;;4165111;28;20203;-80
2021/05/25 05:28:31;;;;;;;12.00;6.00;;;11.00;99.90;;;;;;4147590;28;20181;-79
2021/05/25 05:30:32;;;;;;;8.67;5.53;;;10.90;99.90;;;;;;4164062;28;20611;-79
2021/05/25 05:32:33;;;;;;;8.77;5.50;;;10.80;99.90;;;;;;4147708;28;20168;-81
2021/05/25 05:34:34;;;;;;;11.57;6.23;;;11.00;99.90;;;;;;4163965;28;20198;-82
2021/05/25 05:36:35;;;;;;;9.80;4.97;;;10.70;99.90;;;;;;4165147;28;20249;-78
2021/05/25 05:38:35;;;;;;;6.23;4.50;;;10.70;99.90;;;;;;4147508;28;20647;-80
2021/05/25 05:40:37;;;;;;;7.50;4.27;;;10.70;99.90;;;;;;4163922;28;20183;-77
2021/05/25 05:42:37;;;;;;;5.77;3.70;;;10.70;99.90;;;;;;4163625;28;20262;-83
2021/05/25 05:44:38;;;;;;;7.30;4.17;;;10.50;99.90;;;;;;4164165;28;20651;-80
2021/05/25 05:46:39;;;;;;;8.50;3.63;;;10.70;99.90;;;;;;4164055;28;20179;-80
2021/05/25 05:48:40;;;;;;;4.83;3.50;;;10.80;99.90;;;;;;4163869;28;20200;-79
2021/05/25 05:50:40;;;;;;;8.87;4.10;;;10.80;99.90;;;;;;4163725;28;20164;-80
2021/05/25 05:52:41;;;;;;;5.27;3.70;;;10.80;99.90;;;;;;4163615;28;20164;-80
2021/05/25 05:54:42;;;;;;;6.40;3.90;;;10.70;99.90;;;;;;4164631;28;20179;-81
2021/05/25 05:56:44;;;;;;;6.77;3.70;;;10.80;99.90;;;;;;4147250;28;20724;-80
2021/05/25 05:58:45;;;;;;;7.03;3.70;;;10.90;99.90;;;;;;4163586;28;20817;-81
2021/05/25 06:00:46;;;;;;;4.43;3.20;;;11.00;99.90;;;;;;4163671;28;20654;-79
2021/05/25 06:02:47;;;;;;;6.83;3.30;;;11.20;99.90;;;;;;4147269;28;20169;-80
2021/05/25 06:04:48;;;;;;;5.37;3.67;;;11.20;99.90;;;;;;4147120;28;20173;-81
2021/05/25 06:06:48;;;;;;;8.93;2.90;;;11.20;99.90;;;;;;4147185;28;20176;-80
2021/05/25 06:08:49;;;;;;;6.53;3.37;;;11.30;99.90;;;;;;4147160;28;20244;-78
2021/05/25 06:10:53;;;;;;;7.60;4.00;;;11.20;99.90;;;;;;4165009;28;20673;-80
2021/05/25 06:12:54;;;;;;;4.70;3.23;;;11.00;99.90;;;;;;4163475;28;20226;-77
2021/05/25 06:14:55;;;;;;;10.47;5.30;;;11.00;99.90;;;;;;4164649;28;20172;-77
2021/05/25 06:16:58;;;;;;;7.07;4.40;;;10.90;99.90;;;;;;4164651;28;20210;-78
2021/05/25 06:18:59;;;;;;;8.80;5.73;;;10.70;99.90;;;;;;4147125;28;20258;-79
2021/05/25 06:21:01;;;;;;;8.43;5.43;;;10.50;99.90;;;;;;4147110;28;20164;-79
2021/05/25 06:23:02;;;;;;;8.07;5.50;;;10.60;99.90;;;;;;4163324;28;20207;-81
2021/05/25 06:25:03;;;;;;;7.83;4.70;;;10.70;99.90;;;;;;4167593;28;20578;-80
2021/05/25 06:27:04;;;;;;;14.13;6.50;;;10.80;99.90;;;;;;4150518;28;20176;-80
2021/05/25 06:29:05;;;;;;;8.50;5.43;;;10.80;99.90;;;;;;4166747;28;20550;-81
2021/05/25 06:31:06;;;;;;;9.70;6.00;;;11.00;99.90;;;;;;4166716;28;20198;-80
2021/05/25 06:33:07;;;;;;;14.47;7.13;;;11.00;99.90;;;;;;4167894;28;20630;-79
2021/05/25 06:35:08;;;;;;;8.83;4.50;;;11.10;99.90;;;;;;4166606;28;20191;-79
2021/05/25 06:37:09;;;;;;;7.00;3.77;;;11.00;99.90;;;;;;4166678;28;20203;-79
2021/05/25 06:39:10;;;;;;;8.53;3.70;;;11.20;99.90;;;;;;4150533;28;20184;-80
2021/05/25 06:41:10;;;;;;;10.43;2.67;;;11.30;99.90;;;;;;4166873;28;20234;-80
2021/05/25 06:43:11;;;;;;;6.83;2.73;;;11.40;99.90;;;;;;4166447;28;20198;-81
2021/05/25 06:45:12;;;;;;;9.33;2.53;;;11.50;99.90;;;;;;4167674;28;20543;-79
2021/05/25 06:47:13;;;;;;;8.13;3.50;;;11.50;99.90;;;;;;4150161;28;20711;-78
2021/05/25 06:49:14;;;;;;;5.33;2.30;;;11.70;99.90;;;;;;4166489;28;20172;-80
2021/05/25 06:51:14;;;;;;;12.87;4.97;;;11.90;99.90;;;;;;4167918;28;20670;-79
2021/05/25 06:53:17;;;;;;;6.13;3.22;;;12.10;99.90;;;;;;4166588;28;20164;-79
2021/05/25 06:55:17;;;;;;;6.17;3.43;;;12.10;99.90;;;;;;4166329;28;20234;-80
2021/05/25 06:57:18;;;;;;;6.90;3.50;;;11.90;99.90;;;;;;4166536;28;20176;-79
2021/05/25 06:59:20;;;;;;;8.83;3.00;;;11.70;99.90;;;;;;4149888;28;20267;-79
2021/05/25 07:01:20;;;;;;;5.90;3.07;;;11.70;99.90;;;;;;4150208;28;20668;-80
2021/05/25 07:03:21;;;;;;;6.20;3.67;;;11.60;99.90;;;;;;4166172;28;20265;-80
2021/05/25 07:05:22;;;;;;;8.77;3.80;;;11.50;99.90;;;;;;4149840;28;20623;-79
2021/05/25 07:07:23;;;;;;;8.77;3.20;;;11.60;99.90;;;;;;4149764;28;20176;-79
2021/05/25 07:09:23;;;;;;;340.65;75.53;;;11.60;99.90;;;;;;4166227;28;20187;-80
2021/05/25 07:11:24;;;;;;;250.63;50.53;;;11.70;99.90;;;;;;4166283;28;20254;-79
2021/05/25 07:13:25;;;;;;;15.80;4.00;;;11.60;99.90;;;;;;4166120;28;20686;-79
2021/05/25 07:15:26;;;;;;;7.97;3.03;;;11.70;99.90;;;;;;4166027;28;20215;-79
2021/05/25 07:17:26;;;;;;;7.47;3.03;;;11.90;99.90;;;;;;4165870;28;20176;-79
2021/05/25 07:19:27;;;;;;;12.32;2.70;;;12.20;99.90;;;;;;4166002;28;20172;-78
2021/05/25 07:21:28;;;;;;;6.30;2.55;;;12.50;99.90;;;;;;4166073;28;20172;-80
2021/05/25 07:23:29;;;;;;;7.97;2.45;;;12.60;99.90;;;;;;4166007;28;20543;-78
2021/05/25 07:25:29;;;;;;;6.53;3.00;;;12.70;99.90;;;;;;4149674;28;20239;-79
2021/05/25 07:27:30;;;;;;;6.93;2.30;;;12.70;99.90;;;;;;4165803;28;20164;-79
2021/05/25 07:29:31;;;;;;;13.63;2.92;;;12.80;99.90;;;;;;4165824;28;20172;-79
2021/05/25 07:31:32;;;;;;;8.45;2.50;;;13.00;99.90;;;;;;4165837;28;20176;-81
2021/05/25 07:33:32;;;;;;;9.88;2.13;;;13.30;99.90;;;;;;4165975;28;20167;-80
2021/05/25 07:35:33;;;;;;;8.27;2.55;;;13.50;99.90;;;;;;4164792;28;20659;-82
2021/05/25 07:37:34;;;;;;;5.22;2.20;;;13.80;99.90;;;;;;4165795;28;20168;-81
2021/05/25 07:39:35;;;;;;;6.55;2.30;;;14.20;99.90;;;;;;4149423;28;20177;-76
2021/05/25 07:41:35;;;;;;;5.65;1.73;;;14.20;99.90;;;;;;4165801;28;20188;-79
2021/05/25 07:43:36;;;;;;;7.03;2.00;;;13.60;99.90;;;;;;4165742;28;20665;-79
2021/05/25 07:45:37;;;;;;;8.05;1.85;;;13.10;99.90;;;;;;4149064;28;20263;-79
2021/05/25 07:47:38;;;;;;;7.50;2.00;;;13.60;99.90;;;;;;4165705;28;20164;-77
2021/05/25 07:49:38;;;;;;;9.00;1.85;;;13.90;99.90;;;;;;4149313;28;20573;-78
2021/05/25 07:51:39;;;;;;;4.10;1.40;;;14.20;99.90;;;;;;4149315;28;20180;-77
2021/05/25 07:53:40;;;;;;;7.18;1.70;;;14.50;99.90;;;;;;4149157;28;20173;-79
2021/05/25 07:55:41;;;;;;;8.43;1.50;;;15.00;99.90;;;;;;4165491;28;20258;-80
2021/05/25 07:57:42;;;;;;;5.18;1.42;;;15.50;99.90;;;;;;4166533;28;20646;-79
2021/05/25 07:59:42;;;;;;;5.32;1.40;;;15.80;99.90;;;;;;4149008;28;20214;-78
2021/05/25 08:01:43;;;;;;;5.43;1.25;;;16.10;99.90;;;;;;4165537;28;20164;-79
2021/05/25 08:03:44;;;;;;;5.40;1.50;;;15.90;99.90;;;;;;4165314;28;20196;-79
2021/05/25 08:05:44;;;;;;;8.68;1.50;;;15.80;99.90;;;;;;4148887;28;20176;-79
2021/05/25 08:07:45;;;;;;;6.90;1.20;;;16.40;99.90;;;;;;4165268;28;20171;-78
2021/05/25 08:09:46;;;;;;;4.70;1.33;;;17.40;99.90;;;;;;4165097;28;20171;-79
2021/05/25 08:11:47;;;;;;;4.82;1.10;;;18.70;99.90;;;;;;4165378;28;20643;-80
2021/05/25 08:13:48;;;;;;;5.53;1.02;;;19.60;99.90;;;;;;4148864;28;20172;-78
2021/05/25 08:15:50;;;;;;;7.95;1.38;;;19.70;99.90;;;;;;4166250;28;20247;-76
2021/05/25 08:19:53;;;;;;;3.58;0.85;;;19.90;99.90;;;;;;4166108;28;20172;-77
2021/05/25 08:21:53;;;;;;;5.90;1.13;;;19.50;99.90;;;;;;4148639;28;20191;-79
2021/05/25 08:23:54;;;;;;;6.75;1.15;;;19.60;99.90;;;;;;4166341;28;20251;-79
2021/05/25 08:25:55;;;;;;;3.70;1.13;;;19.80;99.90;;;;;;4148403;28;20643;-78
2021/05/25 08:27:58;;;;;;;9.10;1.27;;;19.90;99.90;;;;;;4164937;28;20176;-76
2021/05/25 08:30:01;;;;;;;5.75;1.35;;;20.80;99.90;;;;;;4164764;28;20171;-77
2021/05/25 08:32:02;;;;;;;6.93;1.10;;;21.00;99.90;;;;;;4148385;28;20635;-77
2021/05/25 08:34:03;;;;;;;6.00;1.02;;;20.90;99.90;;;;;;4164651;28;20175;-76
2021/05/25 08:36:04;;;;;;;4.57;1.00;;;20.50;99.90;;;;;;4164630;28;20551;-77
2021/05/25 08:38:06;;;;;;;3.35;0.88;;;20.10;99.90;;;;;;4148299;28;20201;-77
2021/05/25 08:40:09;;;;;;;4.47;0.90;;;19.10;99.90;;;;;;4166181;28;20359;-77
2021/05/25 08:42:10;;;;;;;7.70;1.10;;;18.50;99.90;;;;;;4166084;28;20187;-76
2021/05/25 08:44:11;;;;;;;10.18;1.15;;;18.40;99.90;;;;;;4148534;28;20223;-77
2021/05/25 08:46:11;;;;;;;4.65;1.13;;;18.50;99.90;;;;;;4164905;28;20626;-79
2021/05/25 08:48:12;;;;;;;4.95;1.02;;;18.70;99.90;;;;;;4156642;28;20224;-75
2021/05/25 08:50:15;;;;;;;4.25;1.05;;;19.20;99.90;;;;;;4154701;28;20204;-76
2021/05/25 08:52:17;;;;;;;3.15;0.98;;;19.20;99.90;;;;;;4131786;28;20169;-78
2021/05/25 08:54:18;;;;;;;11.15;1.23;;;18.90;99.90;;;;;;4131953;28;20173;-78
2021/05/25 08:56:19;;;;;;;6.22;1.00;;;18.60;99.90;;;;;;4147907;28;20211;-77
2021/05/25 08:58:21;;;;;;;12.30;1.60;;;18.00;99.90;;;;;;4155321;28;20251;-76
2021/05/25 09:00:25;;;;;;;8.05;1.40;;;18.10;99.90;;;;;;4159498;28;20164;-77
2021/05/25 09:02:26;;;;;;;7.75;1.40;;;18.30;99.90;;;;;;4155106;28;20170;-77
2021/05/25 09:04:26;;;;;;;4.90;1.30;;;18.50;99.90;;;;;;4153154;28;20254;-79
2021/05/25 09:06:45;;;;;;;8.68;1.20;;;18.80;99.90;;;;;;4139368;28;20178;-76
2021/05/25 09:09:04;;;;;;;4.75;1.25;;;18.70;99.90;;;;;;4163013;28;20188;-78
2021/05/25 09:11:09;;;;;;;10.02;1.25;;;17.80;99.90;;;;;;4163782;28;20298;-77
2021/05/25 09:13:22;;;;;;;6.05;1.02;;;16.90;99.90;;;;;;4165250;28;20172;-76
2021/05/25 09:15:44;;;;;;;10.90;1.27;;;16.90;99.90;;;;;;4170863;28;20172;-77
2021/05/25 09:17:44;;;;;;;5.90;1.30;;;16.60;99.90;;;;;;4165390;28;20176;-77
2021/05/25 09:19:47;;;;;;;8.18;1.27;;;16.60;99.90;;;;;;4165426;28;20658;-77
2021/05/25 09:21:47;;;;;;;9.43;1.20;;;16.40;99.90;;;;;;4165119;28;20263;-77
2021/05/25 09:23:48;;;;;;;15.90;1.50;;;16.40;99.90;;;;;;4163914;28;20550;-78
2021/05/25 09:26:05;;;;;;;8.75;1.17;;;16.20;99.90;;;;;;4163745;28;20191;-78
2021/05/25 09:28:10;;;;;;;7.78;1.52;;;16.00;99.90;;;;;;4157534;28;20172;-77
2021/05/25 09:30:25;;;;;;;9.40;1.40;;;15.60;99.90;;;;;;4165070;28;20160;-78
2021/05/25 09:32:26;;;;;;;7.80;1.10;;;15.30;99.90;;;;;;4163007;28;20178;-77
2021/05/25 09:34:27;;;;;;;5.32;1.08;;;15.20;99.90;;;;;;4164114;28;20540;-77
2021/05/25 09:36:27;;;;;;;10.77;1.13;;;15.20;99.90;;;;;;4163880;28;20633;-77
2021/05/25 09:38:28;;;;;;;10.32;1.38;;;15.00;99.90;;;;;;4163926;28;20164;-79
2021/05/25 09:40:32;;;;;;;7.82;1.33;;;15.00;99.90;;;;;;4147849;28;20263;-79
2021/05/25 09:42:32;;;;;;;5.68;1.20;;;15.00;99.90;;;;;;4164981;28;20633;-77
2021/05/25 09:44:35;;;;;;;8.13;1.38;;;15.00;99.90;;;;;;4147310;28;20160;-76
2021/05/25 09:46:36;;;;;;;7.00;1.40;;;15.20;99.90;;;;;;4163555;28;20204;-76
2021/05/25 09:48:45;;;;;;;7.35;1.25;;;15.20;99.90;;;;;;4163674;28;20493;-77
2021/05/25 09:53:47;;;;;;;10.50;1.13;;;15.40;99.90;;;;;;4165255;28;20179;-79
2021/05/25 09:56:01;;;;;;;7.35;1.10;;;15.20;99.90;;;;;;4163736;28;20204;-77
2021/05/25 09:58:02;;;;;;;7.05;0.80;;;14.70;99.90;;;;;;4163788;28;20172;-77
2021/05/25 10:00:23;;;;;;;3.60;1.15;;;14.10;99.90;;;;;;4163318;28;20207;-77
2021/05/25 10:02:24;;;;;;;4.72;0.63;;;13.30;99.90;;;;;;4164056;28;20523;-77
2021/05/25 10:04:26;;;;;;;2.67;0.63;;;12.80;99.90;;;;;;4163556;28;20168;-78
2021/05/25 10:06:26;;;;;;;4.15;0.60;;;12.50;99.90;;;;;;4147078;28;20173;-79
2021/05/25 10:08:28;;;;;;;2.57;0.60;;;11.90;99.90;;;;;;4163549;28;20199;-79
2021/05/25 10:10:31;;;;;;;4.30;0.80;;;11.90;99.90;;;;;;4164793;28;20196;-79
2021/05/25 10:12:32;;;;;;;5.37;0.80;;;11.50;99.90;;;;;;4163732;28;20165;-80
2021/05/25 10:14:33;;;;;;;4.43;0.95;;;11.50;99.90;;;;;;4164929;28;20496;-78
2021/05/25 10:16:38;;;;;;;4.93;0.80;;;11.60;99.90;;;;;;4147228;28;20215;-79
2021/05/25 10:20:46;;;;;;;3.20;0.75;;;11.80;99.90;;;;;;4163768;28;20167;-82
2021/05/25 10:22:47;;;;;;;4.18;0.80;;;11.90;99.90;;;;;;4164076;28;20168;-79
2021/05/25 10:24:49;;;;;;;5.28;0.70;;;12.40;99.90;;;;;;4164135;28;20172;-79
2021/05/25 10:26:51;;;;;;;2.47;0.70;;;12.80;99.90;;;;;;4163740;28;20694;-78
2021/05/25 10:28:53;;;;;;;6.53;1.30;;;13.60;99.90;;;;;;4163791;28;20168;-81
2021/05/25 10:30:57;;;;;;;5.40;1.17;;;13.90;99.90;;;;;;4165026;28;20164;-78
2021/05/25 10:33:07;;;;;;;1.75;0.63;;;14.00;99.90;;;;;;4147310;28;20173;-79
2021/05/25 10:35:08;;;;;;;5.03;1.08;;;14.10;99.90;;;;;;4147056;28;20172;-79
2021/05/25 10:37:14;;;;;;;6.50;1.17;;;14.20;99.90;;;;;;4164650;28;20716;-78
2021/05/25 10:39:38;;;;;;;4.95;1.10;;;14.70;99.90;;;;;;4164860;28;20176;-79
2021/05/25 10:41:42;;;;;;;5.95;0.90;;;15.20;99.90;;;;;;4163953;28;20204;-77